sensor_id;sensor_type;location;lat;lon;timestamp;P1;durP1;ratioP1;P2;durP2;ratioP2
9838;SDS011;4958;48.150;11.506;2023-08-30T00:02:19;8.30;;;7.60;;
9838;SDS011;4958;48.150;11.506;2023-08-30T00:04:45;8.00;;;7.30;;
9838;SDS011;4958;48.150;11.506;2023-08-30T00:07:12;8.70;;;7.90;;
9838;SDS011;4958;48.150;11.506;2023-08-30T00:09:38;8.55;;;7.78;;
9838;SDS011;4958;48.150;11.506;2023-08-30T00:12:05;8.23;;;7.47;;
9838;SDS011;4958;48.150;11.506;2023-08-30T00:14:32;8.60;;;7.90;;
9838;SDS011;4958;48.150;11.506;2023-08-30T00:17:01;8.25;;;7.53;;
9838;SDS011;4958;48.150;11.506;2023-08-30T00:19:33;8.55;;;7.85;;
9838;SDS011;4958;48.150;11.506;2023-08-30T00:21:59;7.95;;;7.25;;
9838;SDS011;4958;48.150;11.506;2023-08-30T00:24:25;8.73;;;8.02;;
9838;SDS011;4958;48.150;11.506;2023-08-30T00:26:53;8.13;;;7.38;;
9838;SDS011;4958;48.150;11.506;2023-08-30T00:29:20;7.93;;;7.22;;
9838;SDS011;4958;48.150;11.506;2023-08-30T00:31:46;8.50;;;7.80;;
9838;SDS011;4958;48.150;11.506;2023-08-30T00:34:13;8.43;;;7.72;;
9838;SDS011;4958;48.150;11.506;2023-08-30T00:36:40;7.72;;;7.03;;
9838;SDS011;4958;48.150;11.506;2023-08-30T00:39:07;8.43;;;7.55;;
9838;SDS011;4958;48.150;11.506;2023-08-30T00:41:34;8.32;;;7.57;;
9838;SDS011;4958;48.150;11.506;2023-08-30T00:44:01;7.40;;;6.70;;
9838;SDS011;4958;48.150;11.506;2023-08-30T00:46:27;7.80;;;7.20;;
9838;SDS011;4958;48.150;11.506;2023-08-30T00:48:57;7.68;;;7.07;;
9838;SDS011;4958;48.150;11.506;2023-08-30T00:51:24;7.45;;;6.80;;
9838;SDS011;4958;48.150;11.506;2023-08-30T00:53:52;8.75;;;7.85;;
9838;SDS011;4958;48.150;11.506;2023-08-30T00:56:20;7.80;;;7.20;;
9838;SDS011;4958;48.150;11.506;2023-08-30T00:58:47;7.47;;;6.88;;
9838;SDS011;4958;48.150;11.506;2023-08-30T01:01:15;7.95;;;7.20;;
9838;SDS011;4958;48.150;11.506;2023-08-30T01:03:51;7.60;;;7.00;;
9838;SDS011;4958;48.150;11.506;2023-08-30T01:06:17;7.80;;;7.20;;
9838;SDS011;4958;48.150;11.506;2023-08-30T01:08:44;7.65;;;6.90;;
9838;SDS011;4958;48.150;11.506;2023-08-30T01:11:13;7.85;;;7.25;;
9838;SDS011;4958;48.150;11.506;2023-08-30T01:13:46;8.20;;;7.50;;
9838;SDS011;4958;48.150;11.506;2023-08-30T01:16:19;7.40;;;6.80;;
9838;SDS011;4958;48.150;11.506;2023-08-30T01:18:49;7.53;;;6.93;;
9838;SDS011;4958;48.150;11.506;2023-08-30T01:21:22;7.00;;;6.47;;
9838;SDS011;4958;48.150;11.506;2023-08-30T01:23:55;7.53;;;6.93;;
9838;SDS011;4958;48.150;11.506;2023-08-30T01:26:29;7.18;;;6.57;;
9838;SDS011;4958;48.150;11.506;2023-08-30T01:29:07;7.85;;;7.15;;
9838;SDS011;4958;48.150;11.506;2023-08-30T01:31:35;7.55;;;6.95;;
9838;SDS011;4958;48.150;11.506;2023-08-30T01:34:04;7.22;;;6.63;;
9838;SDS011;4958;48.150;11.506;2023-08-30T01:36:30;7.10;;;6.50;;
9838;SDS011;4958;48.150;11.506;2023-08-30T01:38:57;7.45;;;6.85;;
9838;SDS011;4958;48.150;11.506;2023-08-30T01:41:25;7.18;;;6.47;;
9838;SDS011;4958;48.150;11.506;2023-08-30T01:43:53;6.70;;;6.20;;
9838;SDS011;4958;48.150;11.506;2023-08-30T01:46:21;7.05;;;6.45;;
9838;SDS011;4958;48.150;11.506;2023-08-30T01:48:48;6.50;;;6.00;;
9838;SDS011;4958;48.150;11.506;2023-08-30T01:51:16;7.07;;;6.43;;
9838;SDS011;4958;48.150;11.506;2023-08-30T01:53:43;7.10;;;6.40;;
9838;SDS011;4958;48.150;11.506;2023-08-30T01:56:10;7.00;;;6.32;;
9838;SDS011;4958;48.150;11.506;2023-08-30T01:58:37;6.07;;;5.55;;
9838;SDS011;4958;48.150;11.506;2023-08-30T02:01:03;6.53;;;6.03;;
9838;SDS011;4958;48.150;11.506;2023-08-30T02:03:31;6.72;;;6.10;;
9838;SDS011;4958;48.150;11.506;2023-08-30T02:06:03;6.40;;;5.90;;
9838;SDS011;4958;48.150;11.506;2023-08-30T02:08:35;6.43;;;5.93;;
9838;SDS011;4958;48.150;11.506;2023-08-30T02:11:04;6.50;;;6.00;;
9838;SDS011;4958;48.150;11.506;2023-08-30T02:13:37;6.60;;;6.00;;
9838;SDS011;4958;48.150;11.506;2023-08-30T02:16:05;6.22;;;5.72;;
9838;SDS011;4958;48.150;11.506;2023-08-30T02:18:35;6.40;;;5.90;;
9838;SDS011;4958;48.150;11.506;2023-08-30T02:21:02;6.55;;;5.95;;
9838;SDS011;4958;48.150;11.506;2023-08-30T02:23:29;6.47;;;5.97;;
9838;SDS011;4958;48.150;11.506;2023-08-30T02:25:55;6.60;;;6.10;;
9838;SDS011;4958;48.150;11.506;2023-08-30T02:28:22;9.07;;;8.20;;
9838;SDS011;4958;48.150;11.506;2023-08-30T02:30:49;7.00;;;6.40;;
9838;SDS011;4958;48.150;11.506;2023-08-30T02:33:16;6.38;;;5.88;;
9838;SDS011;4958;48.150;11.506;2023-08-30T02:35:44;6.15;;;5.53;;
9838;SDS011;4958;48.150;11.506;2023-08-30T02:38:10;6.25;;;5.75;;
9838;SDS011;4958;48.150;11.506;2023-08-30T02:40:37;6.50;;;6.00;;
9838;SDS011;4958;48.150;11.506;2023-08-30T02:43:03;5.93;;;5.38;;
9838;SDS011;4958;48.150;11.506;2023-08-30T02:45:29;6.25;;;5.75;;
9838;SDS011;4958;48.150;11.506;2023-08-30T02:47:56;5.72;;;5.03;;
9838;SDS011;4958;48.150;11.506;2023-08-30T02:50:22;5.95;;;5.45;;
9838;SDS011;4958;48.150;11.506;2023-08-30T02:52:50;7.25;;;6.65;;
9838;SDS011;4958;48.150;11.506;2023-08-30T02:55:17;5.93;;;5.43;;
9838;SDS011;4958;48.150;11.506;2023-08-30T02:57:44;5.45;;;5.05;;
9838;SDS011;4958;48.150;11.506;2023-08-30T03:00:11;6.03;;;5.53;;
9838;SDS011;4958;48.150;11.506;2023-08-30T03:02:39;5.45;;;4.97;;
9838;SDS011;4958;48.150;11.506;2023-08-30T03:05:05;5.20;;;4.80;;
9838;SDS011;4958;48.150;11.506;2023-08-30T03:07:32;5.32;;;4.90;;
9838;SDS011;4958;48.150;11.506;2023-08-30T03:10:00;5.60;;;5.20;;
9838;SDS011;4958;48.150;11.506;2023-08-30T03:12:26;5.43;;;5.00;;
9838;SDS011;4958;48.150;11.506;2023-08-30T03:14:53;4.95;;;4.55;;
9838;SDS011;4958;48.150;11.506;2023-08-30T03:17:20;5.65;;;5.25;;
9838;SDS011;4958;48.150;11.506;2023-08-30T03:19:46;5.75;;;5.20;;
9838;SDS011;4958;48.150;11.506;2023-08-30T03:22:13;5.78;;;5.18;;
9838;SDS011;4958;48.150;11.506;2023-08-30T03:24:39;5.68;;;5.18;;
9838;SDS011;4958;48.150;11.506;2023-08-30T03:27:07;5.30;;;4.90;;
9838;SDS011;4958;48.150;11.506;2023-08-30T03:29:34;5.70;;;5.20;;
9838;SDS011;4958;48.150;11.506;2023-08-30T03:32:00;5.47;;;4.90;;
9838;SDS011;4958;48.150;11.506;2023-08-30T03:34:27;5.40;;;5.00;;
9838;SDS011;4958;48.150;11.506;2023-08-30T03:36:53;5.57;;;5.18;;
9838;SDS011;4958;48.150;11.506;2023-08-30T03:39:20;5.13;;;4.75;;
9838;SDS011;4958;48.150;11.506;2023-08-30T03:41:47;5.45;;;4.95;;
9838;SDS011;4958;48.150;11.506;2023-08-30T03:44:14;5.18;;;4.78;;
9838;SDS011;4958;48.150;11.506;2023-08-30T03:46:41;4.65;;;4.30;;
9838;SDS011;4958;48.150;11.506;2023-08-30T03:49:07;5.60;;;4.85;;
9838;SDS011;4958;48.150;11.506;2023-08-30T03:51:34;4.70;;;4.40;;
9838;SDS011;4958;48.150;11.506;2023-08-30T03:54:00;4.88;;;4.47;;
9838;SDS011;4958;48.150;11.506;2023-08-30T03:56:27;4.82;;;4.50;;
9838;SDS011;4958;48.150;11.506;2023-08-30T03:58:53;4.63;;;4.22;;
9838;SDS011;4958;48.150;11.506;2023-08-30T04:01:21;5.68;;;4.85;;
9838;SDS011;4958;48.150;11.506;2023-08-30T04:03:47;5.53;;;4.38;;
9838;SDS011;4958;48.150;11.506;2023-08-30T04:06:14;4.95;;;4.55;;
9838;SDS011;4958;48.150;11.506;2023-08-30T04:08:40;5.40;;;4.80;;
9838;SDS011;4958;48.150;11.506;2023-08-30T04:11:06;4.80;;;4.40;;
9838;SDS011;4958;48.150;11.506;2023-08-30T04:13:33;4.80;;;4.40;;
9838;SDS011;4958;48.150;11.506;2023-08-30T04:16:00;4.72;;;4.43;;
9838;SDS011;4958;48.150;11.506;2023-08-30T04:18:28;5.43;;;4.93;;
9838;SDS011;4958;48.150;11.506;2023-08-30T04:20:54;5.15;;;4.75;;
9838;SDS011;4958;48.150;11.506;2023-08-30T04:23:24;5.22;;;4.72;;
9838;SDS011;4958;48.150;11.506;2023-08-30T04:25:52;5.88;;;5.10;;
9838;SDS011;4958;48.150;11.506;2023-08-30T04:28:18;5.40;;;4.90;;
9838;SDS011;4958;48.150;11.506;2023-08-30T04:30:44;5.25;;;4.80;;
9838;SDS011;4958;48.150;11.506;2023-08-30T04:33:11;5.22;;;4.72;;
9838;SDS011;4958;48.150;11.506;2023-08-30T04:35:39;5.15;;;4.65;;
9838;SDS011;4958;48.150;11.506;2023-08-30T04:38:05;4.70;;;4.30;;
9838;SDS011;4958;48.150;11.506;2023-08-30T04:40:32;5.10;;;4.65;;
9838;SDS011;4958;48.150;11.506;2023-08-30T04:42:58;4.20;;;3.80;;
9838;SDS011;4958;48.150;11.506;2023-08-30T04:45:25;4.75;;;4.30;;
9838;SDS011;4958;48.150;11.506;2023-08-30T04:47:51;5.05;;;4.65;;
9838;SDS011;4958;48.150;11.506;2023-08-30T04:50:18;4.88;;;4.57;;
9838;SDS011;4958;48.150;11.506;2023-08-30T04:52:45;5.13;;;4.72;;
9838;SDS011;4958;48.150;11.506;2023-08-30T04:55:12;5.32;;;4.90;;
9838;SDS011;4958;48.150;11.506;2023-08-30T04:57:38;5.30;;;4.90;;
9838;SDS011;4958;48.150;11.506;2023-08-30T05:00:10;5.85;;;5.35;;
9838;SDS011;4958;48.150;11.506;2023-08-30T05:02:37;5.40;;;4.95;;
9838;SDS011;4958;48.150;11.506;2023-08-30T05:05:03;5.00;;;4.60;;
9838;SDS011;4958;48.150;11.506;2023-08-30T05:07:30;5.75;;;5.10;;
9838;SDS011;4958;48.150;11.506;2023-08-30T05:09:58;5.60;;;5.10;;
9838;SDS011;4958;48.150;11.506;2023-08-30T05:12:24;5.88;;;5.25;;
9838;SDS011;4958;48.150;11.506;2023-08-30T05:14:51;7.78;;;5.95;;
9838;SDS011;4958;48.150;11.506;2023-08-30T05:17:17;12.00;;;7.38;;
9838;SDS011;4958;48.150;11.506;2023-08-30T05:19:44;9.55;;;6.70;;
9838;SDS011;4958;48.150;11.506;2023-08-30T05:22:10;8.15;;;5.28;;
9838;SDS011;4958;48.150;11.506;2023-08-30T05:24:37;5.70;;;5.20;;
9838;SDS011;4958;48.150;11.506;2023-08-30T05:27:09;9.18;;;8.38;;
9838;SDS011;4958;48.150;11.506;2023-08-30T05:29:39;10.02;;;9.13;;
9838;SDS011;4958;48.150;11.506;2023-08-30T05:32:06;6.82;;;6.28;;
9838;SDS011;4958;48.150;11.506;2023-08-30T05:34:33;6.30;;;5.70;;
9838;SDS011;4958;48.150;11.506;2023-08-30T05:37:02;7.70;;;7.05;;
9838;SDS011;4958;48.150;11.506;2023-08-30T05:39:28;20.48;;;18.38;;
9838;SDS011;4958;48.150;11.506;2023-08-30T05:41:55;17.00;;;15.40;;
9838;SDS011;4958;48.150;11.506;2023-08-30T05:44:29;6.85;;;6.35;;
9838;SDS011;4958;48.150;11.506;2023-08-30T05:46:56;6.07;;;5.57;;
9838;SDS011;4958;48.150;11.506;2023-08-30T05:49:22;5.50;;;4.90;;
9838;SDS011;4958;48.150;11.506;2023-08-30T05:51:49;7.70;;;5.35;;
9838;SDS011;4958;48.150;11.506;2023-08-30T05:54:15;6.82;;;5.13;;
9838;SDS011;4958;48.150;11.506;2023-08-30T05:56:42;4.95;;;4.65;;
9838;SDS011;4958;48.150;11.506;2023-08-30T05:59:09;5.50;;;5.00;;
9838;SDS011;4958;48.150;11.506;2023-08-30T06:01:37;5.30;;;4.90;;
9838;SDS011;4958;48.150;11.506;2023-08-30T06:04:07;5.43;;;4.90;;
9838;SDS011;4958;48.150;11.506;2023-08-30T06:06:33;5.07;;;4.68;;
9838;SDS011;4958;48.150;11.506;2023-08-30T06:09:00;5.32;;;4.80;;
9838;SDS011;4958;48.150;11.506;2023-08-30T06:11:26;4.97;;;4.57;;
9838;SDS011;4958;48.150;11.506;2023-08-30T06:13:52;5.57;;;5.07;;
9838;SDS011;4958;48.150;11.506;2023-08-30T06:16:19;5.60;;;5.10;;
9838;SDS011;4958;48.150;11.506;2023-08-30T06:18:47;5.35;;;4.95;;
9838;SDS011;4958;48.150;11.506;2023-08-30T06:21:14;5.82;;;5.32;;
9838;SDS011;4958;48.150;11.506;2023-08-30T06:23:40;5.97;;;5.47;;
9838;SDS011;4958;48.150;11.506;2023-08-30T06:26:07;5.53;;;5.07;;
9838;SDS011;4958;48.150;11.506;2023-08-30T06:28:33;5.47;;;4.97;;
9838;SDS011;4958;48.150;11.506;2023-08-30T06:30:59;5.80;;;5.13;;
9838;SDS011;4958;48.150;11.506;2023-08-30T06:33:26;5.60;;;5.20;;
9838;SDS011;4958;48.150;11.506;2023-08-30T06:35:54;5.22;;;4.70;;
9838;SDS011;4958;48.150;11.506;2023-08-30T06:38:21;5.40;;;5.00;;
9838;SDS011;4958;48.150;11.506;2023-08-30T06:40:49;5.20;;;4.72;;
9838;SDS011;4958;48.150;11.506;2023-08-30T06:43:15;5.50;;;5.00;;
9838;SDS011;4958;48.150;11.506;2023-08-30T06:45:44;5.25;;;4.75;;
9838;SDS011;4958;48.150;11.506;2023-08-30T06:48:11;5.68;;;5.13;;
9838;SDS011;4958;48.150;11.506;2023-08-30T06:50:38;4.90;;;4.57;;
9838;SDS011;4958;48.150;11.506;2023-08-30T06:53:05;5.25;;;4.85;;
9838;SDS011;4958;48.150;11.506;2023-08-30T06:55:32;5.78;;;5.30;;
9838;SDS011;4958;48.150;11.506;2023-08-30T06:58:01;5.80;;;5.30;;
9838;SDS011;4958;48.150;11.506;2023-08-30T07:00:27;5.85;;;5.25;;
9838;SDS011;4958;48.150;11.506;2023-08-30T07:02:54;6.07;;;5.00;;
9838;SDS011;4958;48.150;11.506;2023-08-30T07:05:21;5.50;;;5.07;;
9838;SDS011;4958;48.150;11.506;2023-08-30T07:07:48;5.97;;;5.47;;
9838;SDS011;4958;48.150;11.506;2023-08-30T07:10:16;5.90;;;5.40;;
9838;SDS011;4958;48.150;11.506;2023-08-30T07:12:42;6.60;;;5.80;;
9838;SDS011;4958;48.150;11.506;2023-08-30T07:15:10;5.93;;;5.43;;
9838;SDS011;4958;48.150;11.506;2023-08-30T07:17:37;6.10;;;5.50;;
9838;SDS011;4958;48.150;11.506;2023-08-30T07:20:06;5.97;;;5.47;;
9838;SDS011;4958;48.150;11.506;2023-08-30T07:22:33;6.53;;;5.90;;
9838;SDS011;4958;48.150;11.506;2023-08-30T07:25:00;5.80;;;5.30;;
9838;SDS011;4958;48.150;11.506;2023-08-30T07:27:32;6.40;;;5.80;;
9838;SDS011;4958;48.150;11.506;2023-08-30T07:29:59;6.70;;;6.10;;
9838;SDS011;4958;48.150;11.506;2023-08-30T07:32:25;6.15;;;5.65;;
9838;SDS011;4958;48.150;11.506;2023-08-30T07:34:52;6.32;;;5.75;;
9838;SDS011;4958;48.150;11.506;2023-08-30T07:37:18;6.00;;;5.50;;
9838;SDS011;4958;48.150;11.506;2023-08-30T07:39:45;6.43;;;5.82;;
9838;SDS011;4958;48.150;11.506;2023-08-30T07:42:13;6.80;;;6.07;;
9838;SDS011;4958;48.150;11.506;2023-08-30T07:44:40;6.13;;;5.55;;
9838;SDS011;4958;48.150;11.506;2023-08-30T07:47:07;7.30;;;6.70;;
9838;SDS011;4958;48.150;11.506;2023-08-30T07:49:33;6.97;;;6.47;;
9838;SDS011;4958;48.150;11.506;2023-08-30T07:52:00;7.60;;;7.00;;
9838;SDS011;4958;48.150;11.506;2023-08-30T07:54:26;8.05;;;7.35;;
9838;SDS011;4958;48.150;11.506;2023-08-30T07:56:54;7.88;;;7.28;;
9838;SDS011;4958;48.150;11.506;2023-08-30T07:59:20;7.00;;;6.50;;
9838;SDS011;4958;48.150;11.506;2023-08-30T08:01:48;7.15;;;6.55;;
9838;SDS011;4958;48.150;11.506;2023-08-30T08:04:16;7.50;;;6.80;;
9838;SDS011;4958;48.150;11.506;2023-08-30T08:06:43;7.03;;;6.35;;
9838;SDS011;4958;48.150;11.506;2023-08-30T08:09:09;7.53;;;6.82;;
9838;SDS011;4958;48.150;11.506;2023-08-30T08:11:35;7.65;;;7.00;;
9838;SDS011;4958;48.150;11.506;2023-08-30T08:14:02;7.60;;;6.93;;
9838;SDS011;4958;48.150;11.506;2023-08-30T08:16:28;7.28;;;6.68;;
9838;SDS011;4958;48.150;11.506;2023-08-30T08:18:56;7.63;;;7.03;;
9838;SDS011;4958;48.150;11.506;2023-08-30T08:21:24;7.60;;;6.75;;
9838;SDS011;4958;48.150;11.506;2023-08-30T08:23:50;7.95;;;7.22;;
9838;SDS011;4958;48.150;11.506;2023-08-30T08:26:17;7.65;;;7.05;;
9838;SDS011;4958;48.150;11.506;2023-08-30T08:28:43;7.70;;;7.10;;
9838;SDS011;4958;48.150;11.506;2023-08-30T08:31:10;7.78;;;7.07;;
9838;SDS011;4958;48.150;11.506;2023-08-30T08:33:36;7.30;;;6.70;;
9838;SDS011;4958;48.150;11.506;2023-08-30T08:36:05;7.43;;;6.82;;
9838;SDS011;4958;48.150;11.506;2023-08-30T08:38:31;7.80;;;7.15;;
9838;SDS011;4958;48.150;11.506;2023-08-30T08:41:01;7.05;;;6.45;;
9838;SDS011;4958;48.150;11.506;2023-08-30T08:43:29;7.70;;;7.00;;
9838;SDS011;4958;48.150;11.506;2023-08-30T08:45:56;7.15;;;6.63;;
9838;SDS011;4958;48.150;11.506;2023-08-30T08:48:25;7.15;;;6.53;;
9838;SDS011;4958;48.150;11.506;2023-08-30T08:50:54;7.60;;;7.00;;
9838;SDS011;4958;48.150;11.506;2023-08-30T08:53:23;6.18;;;5.70;;
9838;SDS011;4958;48.150;11.506;2023-08-30T08:55:49;7.22;;;6.10;;
9838;SDS011;4958;48.150;11.506;2023-08-30T08:58:17;6.20;;;5.68;;
9838;SDS011;4958;48.150;11.506;2023-08-30T09:00:46;6.40;;;5.70;;
9838;SDS011;4958;48.150;11.506;2023-08-30T09:03:14;5.72;;;5.30;;
9838;SDS011;4958;48.150;11.506;2023-08-30T09:05:42;6.43;;;5.93;;
9838;SDS011;4958;48.150;11.506;2023-08-30T09:08:11;6.15;;;5.65;;
9838;SDS011;4958;48.150;11.506;2023-08-30T09:10:39;6.05;;;5.55;;
9838;SDS011;4958;48.150;11.506;2023-08-30T09:13:06;5.88;;;5.38;;
9838;SDS011;4958;48.150;11.506;2023-08-30T09:15:34;5.93;;;5.43;;
9838;SDS011;4958;48.150;11.506;2023-08-30T09:18:02;4.97;;;4.50;;
9838;SDS011;4958;48.150;11.506;2023-08-30T09:20:28;4.93;;;4.53;;
9838;SDS011;4958;48.150;11.506;2023-08-30T09:22:55;5.10;;;4.60;;
9838;SDS011;4958;48.150;11.506;2023-08-30T09:25:22;5.40;;;4.90;;
9838;SDS011;4958;48.150;11.506;2023-08-30T09:27:59;4.57;;;4.28;;
9838;SDS011;4958;48.150;11.506;2023-08-30T09:30:26;4.90;;;4.50;;
9838;SDS011;4958;48.150;11.506;2023-08-30T09:32:52;4.30;;;4.00;;
9838;SDS011;4958;48.150;11.506;2023-08-30T09:35:19;4.68;;;4.13;;
9838;SDS011;4958;48.150;11.506;2023-08-30T09:37:45;4.10;;;3.70;;
9838;SDS011;4958;48.150;11.506;2023-08-30T09:40:17;3.90;;;3.50;;
9838;SDS011;4958;48.150;11.506;2023-08-30T09:42:45;5.32;;;3.00;;
9838;SDS011;4958;48.150;11.506;2023-08-30T09:45:19;3.17;;;2.90;;
9838;SDS011;4958;48.150;11.506;2023-08-30T09:47:48;2.80;;;2.60;;
9838;SDS011;4958;48.150;11.506;2023-08-30T09:50:16;3.10;;;2.72;;
9838;SDS011;4958;48.150;11.506;2023-08-30T09:52:44;3.80;;;2.83;;
9838;SDS011;4958;48.150;11.506;2023-08-30T09:55:12;2.53;;;2.33;;
9838;SDS011;4958;48.150;11.506;2023-08-30T09:57:40;3.83;;;2.40;;
9838;SDS011;4958;48.150;11.506;2023-08-30T10:00:08;2.88;;;2.33;;
9838;SDS011;4958;48.150;11.506;2023-08-30T10:02:43;2.35;;;2.25;;
9838;SDS011;4958;48.150;11.506;2023-08-30T10:05:11;2.28;;;2.08;;
9838;SDS011;4958;48.150;11.506;2023-08-30T10:07:38;2.42;;;2.22;;
9838;SDS011;4958;48.150;11.506;2023-08-30T10:10:05;2.88;;;2.17;;
9838;SDS011;4958;48.150;11.506;2023-08-30T10:12:32;2.22;;;2.03;;
9838;SDS011;4958;48.150;11.506;2023-08-30T10:14:59;4.78;;;2.00;;
9838;SDS011;4958;48.150;11.506;2023-08-30T10:17:27;3.25;;;2.20;;
9838;SDS011;4958;48.150;11.506;2023-08-30T10:19:55;2.22;;;1.88;;
9838;SDS011;4958;48.150;11.506;2023-08-30T10:22:22;2.10;;;2.00;;
9838;SDS011;4958;48.150;11.506;2023-08-30T10:24:50;2.53;;;2.33;;
9838;SDS011;4958;48.150;11.506;2023-08-30T10:27:20;2.35;;;2.15;;
9838;SDS011;4958;48.150;11.506;2023-08-30T10:29:48;2.25;;;2.03;;
9838;SDS011;4958;48.150;11.506;2023-08-30T10:32:19;2.30;;;2.10;;
9838;SDS011;4958;48.150;11.506;2023-08-30T10:34:47;2.40;;;2.20;;
9838;SDS011;4958;48.150;11.506;2023-08-30T10:37:16;2.47;;;2.28;;
9838;SDS011;4958;48.150;11.506;2023-08-30T10:39:49;1.85;;;1.75;;
9838;SDS011;4958;48.150;11.506;2023-08-30T10:42:21;4.05;;;2.92;;
9838;SDS011;4958;48.150;11.506;2023-08-30T10:44:49;2.47;;;2.10;;
9838;SDS011;4958;48.150;11.506;2023-08-30T10:47:19;2.28;;;1.98;;
9838;SDS011;4958;48.150;11.506;2023-08-30T10:49:46;2.17;;;1.80;;
9838;SDS011;4958;48.150;11.506;2023-08-30T10:52:13;1.90;;;1.80;;
9838;SDS011;4958;48.150;11.506;2023-08-30T10:54:41;2.55;;;1.95;;
9838;SDS011;4958;48.150;11.506;2023-08-30T10:57:12;1.75;;;1.58;;
9838;SDS011;4958;48.150;11.506;2023-08-30T10:59:40;2.65;;;1.80;;
9838;SDS011;4958;48.150;11.506;2023-08-30T11:02:06;1.85;;;1.67;;
9838;SDS011;4958;48.150;11.506;2023-08-30T11:04:33;2.70;;;1.70;;
9838;SDS011;4958;48.150;11.506;2023-08-30T11:07:06;2.17;;;1.60;;
9838;SDS011;4958;48.150;11.506;2023-08-30T11:09:33;1.90;;;1.70;;
9838;SDS011;4958;48.150;11.506;2023-08-30T11:12:04;1.73;;;1.40;;
9838;SDS011;4958;48.150;11.506;2023-08-30T11:14:31;1.50;;;1.40;;
9838;SDS011;4958;48.150;11.506;2023-08-30T11:16:58;1.55;;;1.38;;
9838;SDS011;4958;48.150;11.506;2023-08-30T11:19:28;1.75;;;1.42;;
9838;SDS011;4958;48.150;11.506;2023-08-30T11:21:58;1.52;;;1.33;;
9838;SDS011;4958;48.150;11.506;2023-08-30T11:24:24;1.48;;;1.38;;
9838;SDS011;4958;48.150;11.506;2023-08-30T11:26:54;2.55;;;1.40;;
9838;SDS011;4958;48.150;11.506;2023-08-30T11:29:22;1.40;;;1.30;;
9838;SDS011;4958;48.150;11.506;2023-08-30T11:31:49;1.58;;;1.48;;
9838;SDS011;4958;48.150;11.506;2023-08-30T11:34:17;1.52;;;1.42;;
9838;SDS011;4958;48.150;11.506;2023-08-30T11:36:46;2.72;;;1.40;;
9838;SDS011;4958;48.150;11.506;2023-08-30T11:39:13;2.22;;;1.60;;
9838;SDS011;4958;48.150;11.506;2023-08-30T11:41:41;1.60;;;1.50;;
9838;SDS011;4958;48.150;11.506;2023-08-30T11:44:08;2.35;;;1.50;;
9838;SDS011;4958;48.150;11.506;2023-08-30T11:46:36;2.20;;;1.50;;
9838;SDS011;4958;48.150;11.506;2023-08-30T11:49:04;1.95;;;1.60;;
9838;SDS011;4958;48.150;11.506;2023-08-30T11:51:31;1.60;;;1.50;;
9838;SDS011;4958;48.150;11.506;2023-08-30T11:53:58;1.63;;;1.52;;
9838;SDS011;4958;48.150;11.506;2023-08-30T11:56:27;3.03;;;1.90;;
9838;SDS011;4958;48.150;11.506;2023-08-30T11:58:56;1.67;;;1.45;;
9838;SDS011;4958;48.150;11.506;2023-08-30T12:01:23;2.47;;;1.60;;
9838;SDS011;4958;48.150;11.506;2023-08-30T12:03:53;1.85;;;1.60;;
9838;SDS011;4958;48.150;11.506;2023-08-30T12:06:22;1.73;;;1.63;;
9838;SDS011;4958;48.150;11.506;2023-08-30T12:08:56;1.83;;;1.52;;
9838;SDS011;4958;48.150;11.506;2023-08-30T12:11:24;2.28;;;1.75;;
9838;SDS011;4958;48.150;11.506;2023-08-30T12:13:50;2.05;;;1.67;;
9838;SDS011;4958;48.150;11.506;2023-08-30T12:16:17;1.90;;;1.60;;
9838;SDS011;4958;48.150;11.506;2023-08-30T12:18:45;1.80;;;1.70;;
9838;SDS011;4958;48.150;11.506;2023-08-30T12:21:13;2.10;;;1.80;;
9838;SDS011;4958;48.150;11.506;2023-08-30T12:23:41;1.75;;;1.60;;
9838;SDS011;4958;48.150;11.506;2023-08-30T12:26:08;2.42;;;1.60;;
9838;SDS011;4958;48.150;11.506;2023-08-30T12:28:35;2.08;;;1.52;;
9838;SDS011;4958;48.150;11.506;2023-08-30T12:31:02;1.60;;;1.50;;
9838;SDS011;4958;48.150;11.506;2023-08-30T12:33:30;1.50;;;1.40;;
9838;SDS011;4958;48.150;11.506;2023-08-30T12:35:57;1.92;;;1.65;;
9838;SDS011;4958;48.150;11.506;2023-08-30T12:38:25;1.63;;;1.48;;
9838;SDS011;4958;48.150;11.506;2023-08-30T12:40:52;1.67;;;1.40;;
9838;SDS011;4958;48.150;11.506;2023-08-30T12:43:20;3.70;;;1.48;;
9838;SDS011;4958;48.150;11.506;2023-08-30T12:45:48;1.85;;;1.30;;
9838;SDS011;4958;48.150;11.506;2023-08-30T12:48:15;2.28;;;1.40;;
9838;SDS011;4958;48.150;11.506;2023-08-30T12:50:45;1.70;;;1.60;;
9838;SDS011;4958;48.150;11.506;2023-08-30T12:53:13;1.30;;;1.20;;
9838;SDS011;4958;48.150;11.506;2023-08-30T12:55:43;2.60;;;1.40;;
9838;SDS011;4958;48.150;11.506;2023-08-30T12:58:09;1.40;;;1.30;;
9838;SDS011;4958;48.150;11.506;2023-08-30T13:00:36;1.30;;;1.20;;
9838;SDS011;4958;48.150;11.506;2023-08-30T13:03:03;1.40;;;1.30;;
9838;SDS011;4958;48.150;11.506;2023-08-30T13:05:30;1.50;;;1.17;;
9838;SDS011;4958;48.150;11.506;2023-08-30T13:07:59;1.55;;;1.38;;
9838;SDS011;4958;48.150;11.506;2023-08-30T13:10:26;1.20;;;1.10;;
9838;SDS011;4958;48.150;11.506;2023-08-30T13:12:54;1.40;;;1.30;;
9838;SDS011;4958;48.150;11.506;2023-08-30T13:15:22;1.75;;;1.30;;
9838;SDS011;4958;48.150;11.506;2023-08-30T13:17:48;1.50;;;1.40;;
9838;SDS011;4958;48.150;11.506;2023-08-30T13:20:16;1.83;;;1.45;;
9838;SDS011;4958;48.150;11.506;2023-08-30T13:22:42;1.75;;;1.40;;
9838;SDS011;4958;48.150;11.506;2023-08-30T13:25:09;1.77;;;1.67;;
9838;SDS011;4958;48.150;11.506;2023-08-30T13:27:35;2.08;;;1.70;;
9838;SDS011;4958;48.150;11.506;2023-08-30T13:30:03;1.50;;;1.40;;
9838;SDS011;4958;48.150;11.506;2023-08-30T13:32:30;1.85;;;1.70;;
9838;SDS011;4958;48.150;11.506;2023-08-30T13:34:57;1.50;;;1.40;;
9838;SDS011;4958;48.150;11.506;2023-08-30T13:37:24;1.80;;;1.65;;
9838;SDS011;4958;48.150;11.506;2023-08-30T13:39:51;1.88;;;1.77;;
9838;SDS011;4958;48.150;11.506;2023-08-30T13:42:18;1.90;;;1.80;;
9838;SDS011;4958;48.150;11.506;2023-08-30T13:44:45;2.22;;;1.55;;
9838;SDS011;4958;48.150;11.506;2023-08-30T13:47:13;2.97;;;1.90;;
9838;SDS011;4958;48.150;11.506;2023-08-30T13:49:41;1.65;;;1.55;;
9838;SDS011;4958;48.150;11.506;2023-08-30T13:52:07;1.48;;;1.38;;
9838;SDS011;4958;48.150;11.506;2023-08-30T13:54:34;1.77;;;1.67;;
9838;SDS011;4958;48.150;11.506;2023-08-30T13:57:01;1.63;;;1.52;;
9838;SDS011;4958;48.150;11.506;2023-08-30T13:59:28;1.50;;;1.40;;
9838;SDS011;4958;48.150;11.506;2023-08-30T14:01:55;1.85;;;1.75;;
9838;SDS011;4958;48.150;11.506;2023-08-30T14:04:24;1.80;;;1.70;;
9838;SDS011;4958;48.150;11.506;2023-08-30T14:06:57;1.90;;;1.40;;
9838;SDS011;4958;48.150;11.506;2023-08-30T14:09:23;2.10;;;1.90;;
9838;SDS011;4958;48.150;11.506;2023-08-30T14:11:50;2.08;;;1.88;;
9838;SDS011;4958;48.150;11.506;2023-08-30T14:14:16;1.60;;;1.50;;
9838;SDS011;4958;48.150;11.506;2023-08-30T14:16:42;1.73;;;1.63;;
9838;SDS011;4958;48.150;11.506;2023-08-30T14:19:09;1.65;;;1.55;;
9838;SDS011;4958;48.150;11.506;2023-08-30T14:21:37;1.60;;;1.42;;
9838;SDS011;4958;48.150;11.506;2023-08-30T14:24:03;2.22;;;1.90;;
9838;SDS011;4958;48.150;11.506;2023-08-30T14:26:30;2.15;;;1.75;;
9838;SDS011;4958;48.150;11.506;2023-08-30T14:28:57;1.58;;;1.48;;
9838;SDS011;4958;48.150;11.506;2023-08-30T14:31:23;1.73;;;1.40;;
9838;SDS011;4958;48.150;11.506;2023-08-30T14:33:53;1.60;;;1.50;;
9838;SDS011;4958;48.150;11.506;2023-08-30T14:36:20;3.85;;;1.60;;
9838;SDS011;4958;48.150;11.506;2023-08-30T14:38:48;1.60;;;1.50;;
9838;SDS011;4958;48.150;11.506;2023-08-30T14:41:14;3.17;;;2.42;;
9838;SDS011;4958;48.150;11.506;2023-08-30T14:43:42;2.10;;;1.90;;
9838;SDS011;4958;48.150;11.506;2023-08-30T14:46:08;6.07;;;4.70;;
9838;SDS011;4958;48.150;11.506;2023-08-30T14:48:35;1.80;;;1.70;;
9838;SDS011;4958;48.150;11.506;2023-08-30T14:51:01;3.88;;;2.40;;
9838;SDS011;4958;48.150;11.506;2023-08-30T14:53:31;2.03;;;1.90;;
9838;SDS011;4958;48.150;11.506;2023-08-30T14:55:58;5.18;;;4.50;;
9838;SDS011;4958;48.150;11.506;2023-08-30T14:58:25;1.70;;;1.60;;
9838;SDS011;4958;48.150;11.506;2023-08-30T15:00:51;1.60;;;1.50;;
9838;SDS011;4958;48.150;11.506;2023-08-30T15:03:19;1.90;;;1.70;;